Time;durP1;ratioP1;P1;durP2;ratioP2;P2;SDS_P1;SDS_P2;PMS_P1;PMS_P2;Temp;Humidity;BMP_temperature;BMP_pressure;BME280_temperature;BME280_humidity;BME280_pressure;Samples;Min_cycle;Max_cycle;Signal;HPM_P1;HPM_P2
2021/04/15 00:02:26;;;;;;;26.70;25.92;;;;;;;;;;5051459;28;20488;-44
2021/04/15 00:04:52;;;;;;;26.38;25.58;;;;;;;;;;5049481;28;20374;-44
2021/04/15 00:07:18;;;;;;;28.60;27.80;;;;;;;;;;5049548;28;20037;-46
2021/04/15 00:09:45;;;;;;;27.90;26.95;;;;;;;;;;5049854;28;20029;-45
2021/04/15 00:12:11;;;;;;;28.85;27.92;;;;;;;;;;5049994;28;20424;-44
2021/04/15 00:14:37;;;;;;;27.42;26.27;;;;;;;;;;5051397;28;20435;-44
2021/04/15 00:17:03;;;;;;;31.65;30.73;;;;;;;;;;5049227;28;20045;-46
2021/04/15 00:19:30;;;;;;;27.20;26.33;;;;;;;;;;5044950;28;20041;-48
2021/04/15 00:21:56;;;;;;;30.25;29.33;;;;;;;;;;5054592;28;20572;-46
2021/04/15 00:24:22;;;;;;;27.73;27.02;;;;;;;;;;5055353;28;20044;-44
2021/04/15 00:26:48;;;;;;;29.35;28.55;;;;;;;;;;5036689;28;20041;-44
2021/04/15 00:29:14;;;;;;;28.20;27.27;;;;;;;;;;5053772;28;20044;-46
2021/04/15 00:31:40;;;;;;;30.30;29.08;;;;;;;;;;5054133;28;20044;-46
2021/04/15 00:34:07;;;;;;;29.95;29.20;;;;;;;;;;5053592;28;20052;-44
2021/04/15 00:36:33;;;;;;;29.52;28.65;;;;;;;;;;5051907;28;20036;-46
2021/04/15 00:39:00;;;;;;;28.70;27.95;;;;;;;;;;5055394;28;20044;-44
2021/04/15 00:41:26;;;;;;;32.55;31.55;;;;;;;;;;5034819;28;20043;-44
2021/04/15 00:43:53;;;;;;;28.00;26.80;;;;;;;;;;5054574;28;20477;-43
2021/04/15 00:46:31;;;;;;;30.67;29.55;;;;;;;;;;5054787;28;20043;-44
2021/04/15 00:48:58;;;;;;;30.27;29.13;;;;;;;;;;5053256;28;20492;-44
2021/04/15 00:51:32;;;;;;;31.35;30.30;;;;;;;;;;5055043;28;20044;-44
2021/04/15 00:54:02;;;;;;;31.33;30.05;;;;;;;;;;5051928;28;20037;-46
2021/04/15 00:56:29;;;;;;;29.10;28.20;;;;;;;;;;5054531;28;20106;-47
2021/04/15 00:58:55;;;;;;;28.58;27.77;;;;;;;;;;5052668;28;20033;-44
2021/04/15 01:01:22;;;;;;;31.48;30.42;;;;;;;;;;5051539;28;20045;-45
2021/04/15 01:03:48;;;;;;;29.90;29.08;;;;;;;;;;5041265;28;20049;-47
2021/04/15 01:06:14;;;;;;;30.42;29.52;;;;;;;;;;5051626;28;20037;-44
2021/04/15 01:08:41;;;;;;;29.35;28.35;;;;;;;;;;5053643;28;20040;-45
2021/04/15 01:11:28;;;;;;;27.27;26.48;;;;;;;;;;5054753;28;20056;-44
2021/04/15 01:13:57;;;;;;;26.73;26.23;;;;;;;;;;5052697;28;20056;-47
2021/04/15 01:16:26;;;;;;;24.67;24.17;;;;;;;;;;5049841;28;20113;-45
2021/04/15 01:19:08;;;;;;;30.45;29.75;;;;;;;;;;5054784;28;20133;-44
2021/04/15 01:21:41;;;;;;;28.80;28.15;;;;;;;;;;5048477;28;20041;-44
2021/04/15 01:24:16;;;;;;;26.95;26.45;;;;;;;;;;5053756;28;20037;-46
2021/04/15 01:27:12;;;;;;;28.25;27.58;;;;;;;;;;5052911;28;20045;-45
2021/04/15 01:29:41;;;;;;;29.35;28.45;;;;;;;;;;4997227;28;20050;-47
2021/04/15 01:32:13;;;;;;;28.75;28.15;;;;;;;;;;5052409;28;20091;-46
2021/04/15 01:34:42;;;;;;;27.55;26.85;;;;;;;;;;5053454;28;20041;-44
2021/04/15 01:37:21;;;;;;;28.58;27.73;;;;;;;;;;5052241;28;20045;-44
2021/04/15 01:39:57;;;;;;;29.55;28.77;;;;;;;;;;5054263;28;20060;-45
2021/04/15 01:42:35;;;;;;;29.58;28.88;;;;;;;;;;5053632;28;20068;-43
2021/04/15 01:45:05;;;;;;;27.10;26.40;;;;;;;;;;5043408;28;20063;-44
2021/04/15 01:47:36;;;;;;;30.40;29.70;;;;;;;;;;5053981;28;20037;-44
2021/04/15 01:50:12;;;;;;;31.08;30.27;;;;;;;;;;5052077;28;20132;-44
2021/04/15 01:52:41;;;;;;;28.83;28.02;;;;;;;;;;5050346;28;20091;-45
2021/04/15 01:55:07;;;;;;;29.17;28.40;;;;;;;;;;5052931;28;20529;-45
2021/04/15 01:57:38;;;;;;;27.88;27.15;;;;;;;;;;5050807;28;20127;-46
2021/04/15 02:00:12;;;;;;;29.98;28.88;;;;;;;;;;5051812;28;20036;-44
2021/04/15 02:02:40;;;;;;;31.88;30.77;;;;;;;;;;5051628;28;20543;-46
2021/04/15 02:05:14;;;;;;;32.00;30.95;;;;;;;;;;5052390;28;20091;-44
2021/04/15 02:07:43;;;;;;;32.00;31.20;;;;;;;;;;5052728;28;20473;-50
2021/04/15 02:10:11;;;;;;;30.13;29.42;;;;;;;;;;5051548;28;20040;-44
2021/04/15 02:12:40;;;;;;;30.00;28.98;;;;;;;;;;5052430;28;20453;-46
2021/04/15 02:15:06;;;;;;;31.30;30.40;;;;;;;;;;5053082;28;20485;-45
2021/04/15 02:17:35;;;;;;;32.47;31.50;;;;;;;;;;5051841;28;20049;-43
2021/04/15 02:20:04;;;;;;;30.90;29.88;;;;;;;;;;5058047;28;20039;-43
2021/04/15 02:22:52;;;;;;;31.05;30.25;;;;;;;;;;5050068;28;20040;-45
2021/04/15 02:25:23;;;;;;;28.70;27.75;;;;;;;;;;5040332;28;20048;-47
2021/04/15 02:28:08;;;;;;;33.35;32.25;;;;;;;;;;5053065;28;20045;-44
2021/04/15 02:30:42;;;;;;;31.95;31.05;;;;;;;;;;5050126;28;20048;-44
2021/04/15 02:33:26;;;;;;;29.65;28.77;;;;;;;;;;5034829;28;20055;-46
2021/04/15 02:35:58;;;;;;;29.55;28.67;;;;;;;;;;5053050;28;20167;-46
2021/04/15 02:38:28;;;;;;;32.05;31.10;;;;;;;;;;5050053;28;20493;-44
2021/04/15 02:40:57;;;;;;;30.60;29.70;;;;;;;;;;5058560;28;20060;-46
2021/04/15 02:43:30;;;;;;;32.05;31.20;;;;;;;;;;5052146;28;20052;-45
2021/04/15 02:45:59;;;;;;;31.77;30.33;;;;;;;;;;5044738;28;20048;-46
2021/04/15 02:48:29;;;;;;;31.33;30.00;;;;;;;;;;5052720;28;20045;-46
2021/04/15 02:51:07;;;;;;;31.75;30.70;;;;;;;;;;5050736;28;20515;-44
2021/04/15 02:53:44;;;;;;;31.63;30.67;;;;;;;;;;5050773;28;20039;-44
2021/04/15 02:56:11;;;;;;;31.55;30.55;;;;;;;;;;5035292;28;20045;-44
2021/04/15 02:58:37;;;;;;;31.55;30.65;;;;;;;;;;5050333;28;20052;-44
2021/04/15 03:01:05;;;;;;;32.22;31.25;;;;;;;;;;5052391;28;20454;-46
2021/04/15 03:03:35;;;;;;;32.20;31.17;;;;;;;;;;5051491;28;20041;-45
2021/04/15 03:06:09;;;;;;;30.80;30.10;;;;;;;;;;5050568;28;20035;-44
2021/04/15 03:08:36;;;;;;;30.95;30.17;;;;;;;;;;5051941;28;20473;-43
2021/04/15 03:11:29;;;;;;;30.63;29.83;;;;;;;;;;5050618;28;20128;-45
2021/04/15 03:13:56;;;;;;;28.67;28.00;;;;;;;;;;5048074;28;20088;-44
2021/04/15 03:16:26;;;;;;;31.42;30.48;;;;;;;;;;5052725;28;20063;-44
2021/04/15 03:18:54;;;;;;;29.92;29.08;;;;;;;;;;5051304;28;20083;-45
2021/04/15 03:21:25;;;;;;;28.42;27.77;;;;;;;;;;5038796;28;20037;-44
2021/04/15 03:23:58;;;;;;;32.90;31.80;;;;;;;;;;5052255;28;20041;-43
2021/04/15 03:26:54;;;;;;;32.95;31.85;;;;;;;;;;5048439;28;20040;-46
2021/04/15 03:29:32;;;;;;;30.63;29.52;;;;;;;;;;4970861;28;20050;-45
2021/04/15 03:32:14;;;;;;;29.42;28.33;;;;;;;;;;4972667;28;20125;-46
2021/04/15 03:34:43;;;;;;;33.15;32.05;;;;;;;;;;4964653;28;20138;-45
2021/04/15 03:37:12;;;;;;;32.80;31.70;;;;;;;;;;4971084;28;20074;-44
2021/04/15 03:39:39;;;;;;;31.05;30.25;;;;;;;;;;4973776;28;20119;-45
2021/04/15 03:42:08;;;;;;;30.83;30.13;;;;;;;;;;4980839;28;20403;-44
2021/04/15 03:44:46;;;;;;;32.75;31.58;;;;;;;;;;4970755;28;20098;-45
2021/04/15 03:47:16;;;;;;;32.65;31.33;;;;;;;;;;4971915;28;20384;-45
2021/04/15 03:49:45;;;;;;;34.42;33.33;;;;;;;;;;4971862;28;20078;-46
2021/04/15 03:52:22;;;;;;;29.60;28.95;;;;;;;;;;4971953;28;20050;-45
2021/04/15 03:54:50;;;;;;;30.92;30.10;;;;;;;;;;4971289;28;20067;-44
2021/04/15 03:57:17;;;;;;;31.15;30.35;;;;;;;;;;4970997;28;20046;-45
2021/04/15 03:59:47;;;;;;;33.45;32.40;;;;;;;;;;4972617;28;20066;-45
2021/04/15 04:02:18;;;;;;;31.95;30.85;;;;;;;;;;4969915;28;20031;-44
2021/04/15 04:04:50;;;;;;;31.67;30.67;;;;;;;;;;4974549;28;20043;-43
2021/04/15 04:07:24;;;;;;;32.85;31.85;;;;;;;;;;5048641;28;20044;-44
2021/04/15 04:09:57;;;;;;;33.15;32.22;;;;;;;;;;5050478;28;20036;-45
2021/04/15 04:12:28;;;;;;;30.13;29.23;;;;;;;;;;5050810;28;20079;-45
2021/04/15 04:15:14;;;;;;;31.50;30.60;;;;;;;;;;5049816;28;20036;-44
2021/04/15 04:18:16;;;;;;;27.98;27.25;;;;;;;;;;5037057;28;20036;-45
2021/04/15 04:20:42;;;;;;;31.63;30.73;;;;;;;;;;4984899;28;20130;-45
2021/04/15 04:23:29;;;;;;;28.70;28.20;;;;;;;;;;4973371;28;20054;-45
2021/04/15 04:26:03;;;;;;;32.15;31.45;;;;;;;;;;4942327;28;20082;-47
2021/04/15 04:28:36;;;;;;;30.98;30.27;;;;;;;;;;4970373;28;20475;-45
2021/04/15 04:31:02;;;;;;;31.58;30.38;;;;;;;;;;4970259;28;20045;-44
2021/04/15 04:33:48;;;;;;;33.67;32.58;;;;;;;;;;4970746;28;20080;-46
2021/04/15 04:36:16;;;;;;;30.85;29.85;;;;;;;;;;4969632;28;20430;-44
2021/04/15 04:38:43;;;;;;;34.15;32.95;;;;;;;;;;4970107;28;20047;-44
2021/04/15 04:41:17;;;;;;;35.92;34.78;;;;;;;;;;4975341;28;20047;-45
2021/04/15 04:43:49;;;;;;;31.80;30.77;;;;;;;;;;4963638;28;20552;-47
2021/04/15 04:46:31;;;;;;;34.22;33.03;;;;;;;;;;4971170;28;20091;-46
2021/04/15 04:49:02;;;;;;;33.65;32.72;;;;;;;;;;4970835;28;20534;-45
2021/04/15 04:51:41;;;;;;;33.72;32.33;;;;;;;;;;4971509;28;20055;-46
2021/04/15 04:54:07;;;;;;;29.35;28.35;;;;;;;;;;4990790;28;20041;-44
2021/04/15 04:56:35;;;;;;;35.63;34.22;;;;;;;;;;5046405;28;20522;-45
2021/04/15 04:59:09;;;;;;;31.00;30.05;;;;;;;;;;5042159;28;20057;-45
2021/04/15 05:01:35;;;;;;;33.33;32.33;;;;;;;;;;5041508;28;20042;-46
2021/04/15 05:04:02;;;;;;;31.30;30.38;;;;;;;;;;5046411;28;20033;-44
2021/04/15 05:06:31;;;;;;;35.03;34.03;;;;;;;;;;5052089;28;20037;-45
2021/04/15 05:09:05;;;;;;;29.27;28.65;;;;;;;;;;5052300;28;20044;-44
2021/04/15 05:11:34;;;;;;;31.92;30.92;;;;;;;;;;5046161;28;20044;-44
2021/04/15 05:14:01;;;;;;;30.90;30.02;;;;;;;;;;5051701;28;20033;-45
2021/04/15 05:16:40;;;;;;;31.85;31.05;;;;;;;;;;5053920;28;20047;-44
2021/04/15 05:19:07;;;;;;;31.35;30.38;;;;;;;;;;5051688;28;20042;-45
2021/04/15 05:21:34;;;;;;;33.30;32.10;;;;;;;;;;5051229;28;20112;-40
2021/04/15 05:24:19;;;;;;;30.23;29.35;;;;;;;;;;5047050;28;20029;-43
2021/04/15 05:26:47;;;;;;;31.63;30.65;;;;;;;;;;5046579;28;20068;-45
2021/04/15 05:29:33;;;;;;;33.20;32.20;;;;;;;;;;5051901;28;20151;-43
2021/04/15 05:32:00;;;;;;;34.08;33.08;;;;;;;;;;5050395;28;20045;-43
2021/04/15 05:34:26;;;;;;;30.55;29.75;;;;;;;;;;5054281;28;20107;-44
2021/04/15 05:36:55;;;;;;;33.15;32.35;;;;;;;;;;5052415;28;20111;-44
2021/04/15 05:39:22;;;;;;;32.60;31.52;;;;;;;;;;5053669;28;20060;-44
2021/04/15 05:41:58;;;;;;;28.08;27.27;;;;;;;;;;5052051;28;20045;-45
2021/04/15 05:44:42;;;;;;;30.35;29.65;;;;;;;;;;5035559;28;20041;-43
2021/04/15 05:47:21;;;;;;;100.93;67.10;;;;;;;;;;5053299;28;20437;-45
2021/04/15 05:49:50;;;;;;;32.03;30.80;;;;;;;;;;5045244;28;20043;-43
2021/04/15 05:52:22;;;;;;;30.65;29.85;;;;;;;;;;5052493;28;20128;-43
2021/04/15 05:54:50;;;;;;;31.02;29.83;;;;;;;;;;5053599;28;20091;-43
2021/04/15 05:57:19;;;;;;;34.38;33.17;;;;;;;;;;5053013;28;20036;-44
2021/04/15 05:59:45;;;;;;;34.38;33.15;;;;;;;;;;5050044;28;20110;-46
2021/04/15 06:02:18;;;;;;;30.00;29.02;;;;;;;;;;5052912;28;20402;-45
2021/04/15 06:05:04;;;;;;;32.10;31.10;;;;;;;;;;5054018;28;20432;-44
2021/04/15 06:07:31;;;;;;;37.22;35.33;;;;;;;;;;5050702;28;20124;-44
2021/04/15 06:09:58;;;;;;;31.23;29.88;;;;;;;;;;5050566;28;20033;-44
2021/04/15 06:12:33;;;;;;;30.58;29.52;;;;;;;;;;5052783;28;20052;-46
2021/04/15 06:15:09;;;;;;;31.10;30.00;;;;;;;;;;5050394;28;20047;-44
2021/04/15 06:17:53;;;;;;;31.00;30.10;;;;;;;;;;5053013;28;20044;-44
2021/04/15 06:20:24;;;;;;;33.53;31.85;;;;;;;;;;5052838;28;20045;-45
2021/04/15 06:22:55;;;;;;;30.63;29.63;;;;;;;;;;5051174;28;20033;-44
2021/04/15 06:25:26;;;;;;;29.00;27.75;;;;;;;;;;5053372;28;20120;-45
2021/04/15 06:27:54;;;;;;;30.27;29.45;;;;;;;;;;5050995;28;20116;-44
2021/04/15 06:30:21;;;;;;;28.27;27.48;;;;;;;;;;5051664;28;20032;-44
2021/04/15 06:33:02;;;;;;;30.63;29.33;;;;;;;;;;5053392;28;20048;-44
2021/04/15 06:35:30;;;;;;;27.85;26.92;;;;;;;;;;5052197;28;20059;-43
2021/04/15 06:37:57;;;;;;;31.65;30.55;;;;;;;;;;5052175;28;20133;-43
2021/04/15 06:40:32;;;;;;;29.30;28.10;;;;;;;;;;5032560;28;20040;-45
2021/04/15 06:42:59;;;;;;;31.13;29.63;;;;;;;;;;5052891;28;20044;-44
2021/04/15 06:45:28;;;;;;;30.15;29.00;;;;;;;;;;5050827;28;20041;-45
2021/04/15 06:48:04;;;;;;;28.25;27.02;;;;;;;;;;5050442;28;20033;-43
2021/04/15 06:50:42;;;;;;;30.77;29.38;;;;;;;;;;5052910;28;20103;-45
2021/04/15 06:53:35;;;;;;;27.52;26.42;;;;;;;;;;5052408;28;20473;-44
2021/04/15 06:56:20;;;;;;;28.20;27.40;;;;;;;;;;5048324;28;20053;-46
2021/04/15 06:59:05;;;;;;;28.30;27.50;;;;;;;;;;5046190;28;20072;-44
2021/04/15 07:01:38;;;;;;;29.83;28.58;;;;;;;;;;5052116;28;20110;-44
2021/04/15 07:04:04;;;;;;;27.67;26.77;;;;;;;;;;5050914;28;20032;-46
2021/04/15 07:06:49;;;;;;;22.35;21.88;;;;;;;;;;5052544;28;20051;-44
2021/04/15 07:09:30;;;;;;;25.90;25.20;;;;;;;;;;5051253;28;20033;-44
2021/04/15 07:12:02;;;;;;;23.20;22.70;;;;;;;;;;5051677;28;20033;-45
2021/04/15 07:14:38;;;;;;;23.75;23.17;;;;;;;;;;5051111;28;20091;-43
2021/04/15 07:17:07;;;;;;;24.30;23.80;;;;;;;;;;5051543;28;20041;-44
2021/04/15 07:19:33;;;;;;;25.98;25.35;;;;;;;;;;5052668;28;20115;-44
2021/04/15 07:22:07;;;;;;;26.17;25.38;;;;;;;;;;5051074;28;20064;-43
2021/04/15 07:24:42;;;;;;;22.42;21.92;;;;;;;;;;5050722;28;20040;-43
2021/04/15 07:27:23;;;;;;;22.35;21.60;;;;;;;;;;5051604;28;20456;-45
2021/04/15 07:29:56;;;;;;;24.63;23.40;;;;;;;;;;5051259;28;20049;-44
2021/04/15 07:32:42;;;;;;;26.60;25.90;;;;;;;;;;5053139;28;20033;-43
2021/04/15 07:35:14;;;;;;;24.15;23.45;;;;;;;;;;5014400;28;20053;-43
2021/04/15 07:38:01;;;;;;;22.75;22.08;;;;;;;;;;5013201;28;20046;-44
2021/04/15 07:40:30;;;;;;;24.60;23.35;;;;;;;;;;5013612;28;20050;-43
2021/04/15 07:43:11;;;;;;;21.60;21.17;;;;;;;;;;5009550;28;20510;-43
2021/04/15 07:45:56;;;;;;;16.27;15.73;;;;;;;;;;5007908;28;20057;-44
2021/04/15 07:48:26;;;;;;;22.05;21.55;;;;;;;;;;5009615;28;20536;-43
2021/04/15 07:51:07;;;;;;;23.23;22.50;;;;;;;;;;5011007;28;20046;-44
2021/04/15 07:53:53;;;;;;;24.67;23.58;;;;;;;;;;5011087;28;20122;-43
2021/04/15 07:56:37;;;;;;;23.23;22.40;;;;;;;;;;5011000;28;20053;-44
2021/04/15 07:59:22;;;;;;;17.38;16.98;;;;;;;;;;5008965;28;20062;-45
2021/04/15 08:01:54;;;;;;;21.85;21.27;;;;;;;;;;5011285;28;20050;-46
2021/04/15 08:04:30;;;;;;;6.53;6.32;;;;;;;;;;5009979;28;20068;-44
2021/04/15 08:07:18;;;;;;;17.98;17.65;;;;;;;;;;5010603;28;20376;-43
2021/04/15 08:09:48;;;;;;;20.65;19.55;;;;;;;;;;5009141;28;20046;-44
2021/04/15 08:12:23;;;;;;;21.13;20.65;;;;;;;;;;5028311;28;20088;-44
2021/04/15 08:14:55;;;;;;;23.50;22.92;;;;;;;;;;5051278;28;20036;-43
2021/04/15 08:17:34;;;;;;;21.83;21.38;;;;;;;;;;5050915;28;20036;-45
2021/04/15 08:20:03;;;;;;;21.13;20.65;;;;;;;;;;5051947;28;20043;-44
2021/04/15 08:22:48;;;;;;;24.80;24.00;;;;;;;;;;5049901;28;20045;-43
2021/04/15 08:25:18;;;;;;;19.02;18.20;;;;;;;;;;5051351;28;20059;-48
2021/04/15 08:27:50;;;;;;;16.33;15.93;;;;;;;;;;5051916;28;20457;-43
2021/04/15 08:30:16;;;;;;;7.65;7.55;;;;;;;;;;5035622;28;20493;-44
2021/04/15 08:32:58;;;;;;;9.70;9.50;;;;;;;;;;5050253;28;20037;-44
2021/04/15 08:35:24;;;;;;;12.07;11.88;;;;;;;;;;5051087;28;20060;-43
2021/04/15 08:37:50;;;;;;;4.07;3.88;;;;;;;;;;5051154;28;20516;-44
2021/04/15 08:40:17;;;;;;;4.18;4.07;;;;;;;;;;5052508;28;20072;-46
2021/04/15 08:43:01;;;;;;;15.63;15.18;;;;;;;;;;5053968;28;20044;-44
2021/04/15 08:45:30;;;;;;;8.35;8.20;;;;;;;;;;5053079;28;20041;-44
2021/04/15 08:48:26;;;;;;;7.20;6.93;;;;;;;;;;5055883;28;20049;-44
2021/04/15 08:50:59;;;;;;;4.55;3.95;;;;;;;;;;4974688;28;20070;-43
2021/04/15 08:53:44;;;;;;;3.13;3.13;;;;;;;;;;4973196;28;20057;-44
2021/04/15 08:56:17;;;;;;;2.55;2.45;;;;;;;;;;4974142;28;20574;-44
2021/04/15 08:58:58;;;;;;;2.67;2.58;;;;;;;;;;4974291;28;20558;-44
2021/04/15 09:01:31;;;;;;;1.90;1.90;;;;;;;;;;4974355;28;20061;-45
2021/04/15 09:04:03;;;;;;;2.10;2.10;;;;;;;;;;4975003;28;20134;-44
2021/04/15 09:06:39;;;;;;;2.60;2.60;;;;;;;;;;4972543;28;20071;-44
2021/04/15 09:09:05;;;;;;;2.80;2.70;;;;;;;;;;4974295;28;20435;-44
2021/04/15 09:11:50;;;;;;;3.63;3.42;;;;;;;;;;4971295;28;20047;-43
2021/04/15 09:14:16;;;;;;;2.67;2.58;;;;;;;;;;4972720;28;20058;-44
2021/04/15 09:16:48;;;;;;;2.78;2.67;;;;;;;;;;4973706;28;20066;-43
2021/04/15 09:19:27;;;;;;;2.60;2.40;;;;;;;;;;4973014;28;20046;-44
2021/04/15 09:22:08;;;;;;;6.63;6.05;;;;;;;;;;4971008;28;20059;-44
2021/04/15 09:24:48;;;;;;;18.90;14.68;;;;;;;;;;4972797;28;20054;-45
2021/04/15 09:27:23;;;;;;;3.03;2.88;;;;;;;;;;5003469;28;20137;-43
2021/04/15 09:29:49;;;;;;;2.22;2.03;;;;;;;;;;5030417;28;20091;-46
2021/04/15 09:32:17;;;;;;;5.72;5.30;;;;;;;;;;5054000;28;20048;-45
2021/04/15 09:34:52;;;;;;;1.80;1.80;;;;;;;;;;5052158;28;20032;-45
2021/04/15 09:37:35;;;;;;;2.20;2.20;;;;;;;;;;5052841;28;20123;-47
2021/04/15 09:40:06;;;;;;;3.30;3.20;;;;;;;;;;5057606;28;20033;-44
2021/04/15 09:42:38;;;;;;;2.20;2.13;;;;;;;;;;5051011;28;20076;-43
2021/04/15 09:45:07;;;;;;;2.15;1.58;;;;;;;;;;5054502;28;20137;-43
2021/04/15 09:47:33;;;;;;;1.58;1.58;;;;;;;;;;5052371;28;20037;-44
2021/04/15 09:50:22;;;;;;;1.55;1.48;;;;;;;;;;5052729;28;20037;-43
2021/04/15 09:52:48;;;;;;;1.38;1.38;;;;;;;;;;5051720;28;20041;-46
2021/04/15 09:55:33;;;;;;;2.33;2.10;;;;;;;;;;5051740;28;20116;-43
2021/04/15 09:58:03;;;;;;;1.98;1.98;;;;;;;;;;5036064;28;20037;-46
2021/04/15 10:00:41;;;;;;;2.33;2.28;;;;;;;;;;5049046;28;20033;-44
2021/04/15 10:03:07;;;;;;;1.90;1.90;;;;;;;;;;5046048;28;20045;-44
2021/04/15 10:05:51;;;;;;;1.98;1.98;;;;;;;;;;5052510;28;20393;-44
2021/04/15 10:08:17;;;;;;;2.33;2.22;;;;;;;;;;5052234;28;20032;-45
2021/04/15 10:10:50;;;;;;;2.22;2.22;;;;;;;;;;5051963;28;20087;-45
2021/04/15 10:13:52;;;;;;;1.70;1.63;;;;;;;;;;5050598;28;20041;-46
2021/04/15 10:16:24;;;;;;;2.20;2.20;;;;;;;;;;4984414;28;20078;-44
2021/04/15 10:19:06;;;;;;;1.90;1.80;;;;;;;;;;5042349;28;20061;-46
2021/04/15 10:21:58;;;;;;;4.43;2.22;;;;;;;;;;5050262;28;20523;-47
2021/04/15 10:24:27;;;;;;;2.30;2.20;;;;;;;;;;5029883;28;20128;-44
2021/04/15 10:27:03;;;;;;;3.30;2.28;;;;;;;;;;5053460;28;20045;-44
2021/04/15 10:29:40;;;;;;;2.22;2.22;;;;;;;;;;5051264;28;20037;-44
2021/04/15 10:32:06;;;;;;;1.75;1.70;;;;;;;;;;5042705;28;20148;-45
2021/04/15 10:34:39;;;;;;;2.92;2.83;;;;;;;;;;5052352;28;20043;-47
2021/04/15 10:37:24;;;;;;;2.03;2.03;;;;;;;;;;5051444;28;20064;-45
2021/04/15 10:39:53;;;;;;;3.17;3.08;;;;;;;;;;5054108;28;20040;-46
2021/04/15 10:42:38;;;;;;;2.92;2.92;;;;;;;;;;5049963;28;20052;-43
2021/04/15 10:45:23;;;;;;;5.07;4.78;;;;;;;;;;5040934;28;20044;-45
2021/04/15 10:48:14;;;;;;;8.32;8.23;;;;;;;;;;5043050;28;20044;-44
2021/04/15 10:50:48;;;;;;;13.32;13.15;;;;;;;;;;5048109;28;20061;-43
2021/04/15 10:53:16;;;;;;;10.43;10.07;;;;;;;;;;5051151;28;20029;-44
2021/04/15 10:55:44;;;;;;;3.83;3.30;;;;;;;;;;5050591;28;20045;-45
2021/04/15 10:58:40;;;;;;;2.15;2.15;;;;;;;;;;5050231;28;20048;-44
2021/04/15 11:01:38;;;;;;;3.28;3.05;;;;;;;;;;4940089;28;20151;-44
2021/04/15 11:04:13;;;;;;;2.85;2.75;;;;;;;;;;4889305;29;20045;-44
2021/04/15 11:06:56;;;;;;;1.83;1.83;;;;;;;;;;4888288;29;20044;-44
2021/04/15 11:09:30;;;;;;;2.37;2.17;;;;;;;;;;4896036;29;20135;-43
2021/04/15 11:11:59;;;;;;;2.42;2.33;;;;;;;;;;4889678;29;20143;-44
2021/04/15 11:14:27;;;;;;;2.97;2.83;;;;;;;;;;4889124;29;20562;-49
2021/04/15 11:16:55;;;;;;;2.03;1.88;;;;;;;;;;4886448;29;20057;-48
2021/04/15 11:19:26;;;;;;;2.55;2.22;;;;;;;;;;4883069;29;20056;-48
2021/04/15 11:21:56;;;;;;;2.28;2.28;;;;;;;;;;4877571;29;20052;-46
2021/04/15 11:24:27;;;;;;;2.20;2.08;;;;;;;;;;4884232;29;20088;-49
2021/04/15 11:26:56;;;;;;;3.67;1.58;;;;;;;;;;4883029;29;20528;-46
2021/04/15 11:29:42;;;;;;;1.20;1.20;;;;;;;;;;4888947;29;20108;-45
2021/04/15 11:32:23;;;;;;;2.60;2.50;;;;;;;;;;4888367;29;20052;-46
2021/04/15 11:35:08;;;;;;;2.80;1.75;;;;;;;;;;4878573;29;20054;-47
2021/04/15 11:37:38;;;;;;;2.17;2.08;;;;;;;;;;4921712;29;20384;-46
2021/04/15 11:40:24;;;;;;;2.00;2.00;;;;;;;;;;5005742;28;20377;-44
2021/04/15 11:42:51;;;;;;;1.65;1.65;;;;;;;;;;5046172;28;20037;-46
2021/04/15 11:45:32;;;;;;;1.98;1.98;;;;;;;;;;5032101;28;20041;-48
2021/04/15 11:48:31;;;;;;;2.92;2.72;;;;;;;;;;5048749;28;20037;-44
2021/04/15 11:51:09;;;;;;;7.65;5.93;;;;;;;;;;4952663;28;20047;-44
2021/04/15 11:53:38;;;;;;;1.88;1.88;;;;;;;;;;4953129;28;20070;-44
2021/04/15 11:56:42;;;;;;;2.08;2.03;;;;;;;;;;4950855;28;20126;-44
2021/04/15 11:59:20;;;;;;;1.55;1.45;;;;;;;;;;4888869;29;20864;-44
2021/04/15 12:01:48;;;;;;;1.88;1.77;;;;;;;;;;4894170;29;20140;-44
2021/04/15 12:04:25;;;;;;;2.45;1.50;;;;;;;;;;4879019;29;20045;-45
2021/04/15 12:07:05;;;;;;;1.83;1.80;;;;;;;;;;4894093;29;20064;-45
2021/04/15 12:09:40;;;;;;;1.60;1.60;;;;;;;;;;4895666;29;20056;-43
2021/04/15 12:12:12;;;;;;;1.38;1.38;;;;;;;;;;4906591;29;20044;-44
2021/04/15 12:14:39;;;;;;;2.60;2.50;;;;;;;;;;4892450;29;20053;-45
2021/04/15 12:17:24;;;;;;;3.78;3.42;;;;;;;;;;4900105;29;20116;-45
2021/04/15 12:19:53;;;;;;;4.85;4.65;;;;;;;;;;4905191;29;20091;-44
2021/04/15 12:22:32;;;;;;;4.32;4.13;;;;;;;;;;4900923;29;20044;-46
2021/04/15 12:25:04;;;;;;;4.88;4.45;;;;;;;;;;4894882;29;20103;-45
2021/04/15 12:27:32;;;;;;;2.38;2.35;;;;;;;;;;4975606;28;20146;-43
2021/04/15 12:30:08;;;;;;;1.85;1.75;;;;;;;;;;4987940;28;20043;-47
2021/04/15 12:32:36;;;;;;;1.85;1.75;;;;;;;;;;5009624;28;20536;-45
2021/04/15 12:35:05;;;;;;;2.60;2.50;;;;;;;;;;5055659;28;20044;-46
2021/04/15 12:37:50;;;;;;;4.43;2.47;;;;;;;;;;5051415;28;20052;-44
2021/04/15 12:40:35;;;;;;;2.10;2.00;;;;;;;;;;5055063;28;20036;-44
2021/04/15 12:43:13;;;;;;;1.80;1.80;;;;;;;;;;5052322;28;20040;-44
2021/04/15 12:45:52;;;;;;;2.70;2.50;;;;;;;;;;5049538;28;20053;-44
2021/04/15 12:48:24;;;;;;;4.63;2.78;;;;;;;;;;5057844;28;20045;-45
2021/04/15 12:50:50;;;;;;;3.40;2.92;;;;;;;;;;5057725;28;20123;-44
2021/04/15 12:53:17;;;;;;;9.13;8.52;;;;;;;;;;5053246;28;20040;-44
2021/04/15 12:55:43;;;;;;;2.90;2.80;;;;;;;;;;5056198;28;20029;-44
2021/04/15 12:58:10;;;;;;;2.42;2.35;;;;;;;;;;5057766;28;20041;-46
2021/04/15 13:00:46;;;;;;;4.68;4.57;;;;;;;;;;5056884;28;20040;-46
2021/04/15 13:03:26;;;;;;;3.00;2.80;;;;;;;;;;5057658;28;20080;-45
2021/04/15 13:05:56;;;;;;;4.00;3.90;;;;;;;;;;5058794;28;20051;-45
2021/04/15 13:08:37;;;;;;;8.55;8.45;;;;;;;;;;5053903;28;20029;-44
2021/04/15 13:11:09;;;;;;;11.98;11.68;;;;;;;;;;5058837;28;20061;-43
2021/04/15 13:14:14;;;;;;;12.25;11.88;;;;;;;;;;5057001;28;20037;-44
2021/04/15 13:16:43;;;;;;;14.18;14.02;;;;;;;;;;4998340;28;20046;-45
2021/04/15 13:19:09;;;;;;;8.23;8.13;;;;;;;;;;4997504;28;20062;-45
2021/04/15 13:21:56;;;;;;;10.95;10.65;;;;;;;;;;4999157;28;20145;-45
2021/04/15 13:24:40;;;;;;;13.48;13.27;;;;;;;;;;4999974;28;20057;-46
2021/04/15 13:27:24;;;;;;;19.23;18.52;;;;;;;;;;4981257;28;20030;-45
2021/04/15 13:30:08;;;;;;;16.23;16.02;;;;;;;;;;4995031;28;20065;-47
2021/04/15 13:32:53;;;;;;;16.92;16.63;;;;;;;;;;4996918;28;20057;-45
2021/04/15 13:35:21;;;;;;;15.85;15.52;;;;;;;;;;4994951;28;20415;-45
2021/04/15 13:37:47;;;;;;;16.20;15.93;;;;;;;;;;4995966;28;20141;-44
2021/04/15 13:40:18;;;;;;;15.30;15.02;;;;;;;;;;4995336;28;20149;-45
2021/04/15 13:42:44;;;;;;;14.55;14.38;;;;;;;;;;4994886;28;20575;-44
2021/04/15 13:45:31;;;;;;;15.68;15.32;;;;;;;;;;5008288;28;20080;-45
2021/04/15 13:47:57;;;;;;;13.55;12.98;;;;;;;;;;5017984;28;20547;-44
2021/04/15 13:50:42;;;;;;;14.20;14.00;;;;;;;;;;5053116;28;20040;-44
2021/04/15 13:53:27;;;;;;;13.73;13.63;;;;;;;;;;5053269;28;20119;-43
2021/04/15 13:55:56;;;;;;;16.00;15.77;;;;;;;;;;5054444;28;20044;-44
2021/04/15 13:58:34;;;;;;;15.30;15.07;;;;;;;;;;5051249;28;20091;-45
2021/04/15 14:01:02;;;;;;;16.90;16.48;;;;;;;;;;5035719;28;20052;-44
2021/04/15 14:03:37;;;;;;;15.32;14.70;;;;;;;;;;5052419;28;20060;-44
2021/04/15 14:06:06;;;;;;;14.68;14.57;;;;;;;;;;5052816;28;20069;-44
2021/04/15 14:08:35;;;;;;;16.60;16.20;;;;;;;;;;5054710;28;20033;-44
2021/04/15 14:11:20;;;;;;;16.20;15.85;;;;;;;;;;5049757;28;20041;-47
2021/04/15 14:13:47;;;;;;;14.00;13.50;;;;;;;;;;5052918;28;20398;-44
2021/04/15 14:16:14;;;;;;;15.23;14.88;;;;;;;;;;5052420;28;20041;-44
2021/04/15 14:18:42;;;;;;;13.88;13.60;;;;;;;;;;5051993;28;20052;-44
2021/04/15 14:21:29;;;;;;;14.27;14.18;;;;;;;;;;5065483;28;20037;-44
2021/04/15 14:23:55;;;;;;;14.07;13.98;;;;;;;;;;5052471;28;20068;-45
2021/04/15 14:26:29;;;;;;;14.48;14.15;;;;;;;;;;5049857;28;20033;-44
2021/04/15 14:29:08;;;;;;;10.80;10.48;;;;;;;;;;5053029;28;20370;-44
2021/04/15 14:31:41;;;;;;;5.30;4.82;;;;;;;;;;5049824;28;20037;-45
2021/04/15 14:34:19;;;;;;;16.40;12.52;;;;;;;;;;5051802;28;20128;-44
2021/04/15 14:36:55;;;;;;;2.58;2.53;;;;;;;;;;5042989;28;20037;-45
2021/04/15 14:39:27;;;;;;;1.73;1.73;;;;;;;;;;5049848;28;20442;-45
2021/04/15 14:42:02;;;;;;;2.35;1.63;;;;;;;;;;5045195;28;20096;-45
2021/04/15 14:44:28;;;;;;;1.40;1.40;;;;;;;;;;5050449;28;20041;-47
2021/04/15 14:46:55;;;;;;;2.38;2.28;;;;;;;;;;5053726;28;20037;-43
2021/04/15 14:49:26;;;;;;;1.50;1.50;;;;;;;;;;5035148;28;20044;-46
2021/04/15 14:52:12;;;;;;;2.70;1.40;;;;;;;;;;5052933;28;20519;-46
2021/04/15 14:54:39;;;;;;;1.83;1.83;;;;;;;;;;5047538;28;20099;-44
2021/04/15 14:57:15;;;;;;;1.85;1.85;;;;;;;;;;5051115;28;20040;-44
2021/04/15 14:59:41;;;;;;;1.33;1.33;;;;;;;;;;5052686;28;20029;-43
2021/04/15 15:02:13;;;;;;;2.80;2.70;;;;;;;;;;5052667;28;20045;-45
2021/04/15 15:04:40;;;;;;;1.38;1.38;;;;;;;;;;5037960;28;20045;-45
2021/04/15 15:07:07;;;;;;;1.60;1.60;;;;;;;;;;5053705;28;20123;-44